createdAt,value
2023-03-25T00:01:45.748Z,99266.13
2023-03-25T00:04:55.275Z,99269.09
2023-03-25T00:07:57.624Z,99250.75
2023-03-25T00:11:01.822Z,99265.97
2023-03-25T00:14:04.602Z,99261.38
2023-03-25T00:17:07.059Z,99260.56
2023-03-25T00:20:10.374Z,99261.94
2023-03-25T00:23:16.298Z,99268.41
2023-03-25T00:26:18.598Z,99276.53
2023-03-25T00:29:21.692Z,99272.75
2023-03-25T00:32:24.450Z,99269.38
2023-03-25T00:35:26.936Z,99265.81
2023-03-25T00:38:35.237Z,99249.09
2023-03-25T00:41:37.867Z,99263.44
2023-03-25T00:44:41.108Z,99271.78
2023-03-25T00:47:44.233Z,99275.44
2023-03-25T00:50:48.903Z,99285.53
2023-03-25T00:53:56.270Z,99294.13
2023-03-25T00:56:58.626Z,99292.28
2023-03-25T01:00:01.407Z,99293.06
2023-03-25T01:03:04.419Z,99283.66
2023-03-25T01:06:14.080Z,99289.03
2023-03-25T01:09:16.396Z,99275.53
2023-03-25T01:12:19.955Z,99277.09
2023-03-25T01:15:22.326Z,99274.16
2023-03-25T01:18:24.657Z,99270.31
2023-03-25T01:21:27.213Z,99268.72
2023-03-25T01:24:29.621Z,99273.88
2023-03-25T01:27:31.977Z,99262.78
2023-03-25T01:30:34.391Z,99247.16
2023-03-25T01:33:36.718Z,99251.16
2023-03-25T01:36:46.705Z,99248.47
2023-03-25T01:39:49.366Z,99248.16
2023-03-25T01:42:53.061Z,99237.88
2023-03-25T01:45:55.810Z,99230.31
2023-03-25T01:48:58.373Z,99231.56
2023-03-25T01:52:04.409Z,99222.09
2023-03-25T01:55:07.976Z,99225.91
2023-03-25T01:58:12.420Z,99227.94
2023-03-25T02:01:15.405Z,99217.97
2023-03-25T02:04:27.422Z,99214.75
2023-03-25T02:07:32.824Z,99226.38
2023-03-25T02:10:36.698Z,99233.72
2023-03-25T02:13:40.594Z,99222.66
2023-03-25T02:17:03.282Z,99236.63
2023-03-25T02:20:24.082Z,99239.31
2023-03-25T02:23:34.503Z,99225.78
2023-03-25T02:27:14.524Z,99220.63
2023-03-25T02:30:38.705Z,99228.47
2023-03-25T02:33:48.354Z,99229.28
2023-03-25T02:37:33.726Z,99229.09
2023-03-25T02:40:40.810Z,99242.03
2023-03-25T02:44:02.388Z,99227.97
2023-03-25T02:47:14.348Z,99213.16
2023-03-25T02:50:22.099Z,99237.47
2023-03-25T02:53:33.557Z,99232.31
2023-03-25T02:56:38.039Z,99228.78
2023-03-25T02:59:40.900Z,99233.06
2023-03-25T03:02:53.397Z,99219.28
2023-03-25T03:06:00.933Z,99232.31
2023-03-25T03:09:12.475Z,99225.78
2023-03-25T03:12:26.533Z,99220.13
2023-03-25T03:15:43.776Z,99212.22
2023-03-25T03:18:57.406Z,99216.59
2023-03-25T03:22:08.659Z,99215.50
2023-03-25T03:25:11.242Z,99216.88
2023-03-25T03:28:25.422Z,99212.84
2023-03-25T03:31:48.855Z,99206.06
2023-03-25T03:35:06.879Z,99200.63
2023-03-25T03:38:12.940Z,99193.63
2023-03-25T03:41:19.924Z,99192.53
2023-03-25T03:44:27.038Z,99196.34
2023-03-25T03:47:32.848Z,99198.28
2023-03-25T03:50:41.067Z,99192.84
2023-03-25T03:53:48.641Z,99194.47
2023-03-25T03:56:53.773Z,99195.25
2023-03-25T04:00:02.804Z,99190.66
2023-03-25T04:03:24.948Z,99179.06
2023-03-25T04:06:35.626Z,99192.59
2023-03-25T04:10:03.039Z,99192.88
2023-03-25T04:13:10.781Z,99204.50
2023-03-25T04:16:13.492Z,99203.19
2023-03-25T04:19:19.096Z,99211.03
2023-03-25T04:22:21.981Z,99207.78
2023-03-25T04:25:25.520Z,99219.41
2023-03-25T04:28:27.877Z,99201.63
2023-03-25T04:31:31.436Z,99233.19
2023-03-25T04:34:33.973Z,99243.53
2023-03-25T04:37:37.226Z,99254.28
2023-03-25T04:40:40.780Z,99252.13
2023-03-25T04:43:45.307Z,99234.03
2023-03-25T04:46:47.980Z,99258.03
2023-03-25T04:49:50.711Z,99265.91
2023-03-25T04:52:53.959Z,99274.78
2023-03-25T04:55:56.688Z,99252.13
2023-03-25T04:58:59.066Z,99265.38
2023-03-25T05:02:03.140Z,99266.75
2023-03-25T05:05:05.645Z,99266.97
2023-03-25T05:08:08.237Z,99267.53
2023-03-25T05:11:10.581Z,99275.38
2023-03-25T05:14:14.933Z,99263.72
2023-03-25T05:17:17.317Z,99263.22
2023-03-25T05:20:19.716Z,99259.63
2023-03-25T05:23:22.100Z,99265.06
2023-03-25T05:26:25.652Z,99256.94
2023-03-25T05:29:27.925Z,99255.34
2023-03-25T05:32:33.444Z,99264.00
2023-03-25T05:35:35.963Z,99267.13
2023-03-25T05:38:41.761Z,99273.97
2023-03-25T05:41:45.925Z,99264.22
2023-03-25T05:44:51.279Z,99264.72
2023-03-25T05:47:54.339Z,99253.34
2023-03-25T05:50:56.790Z,99255.69
2023-03-25T05:53:59.860Z,99257.00
2023-03-25T05:57:02.250Z,99254.66
2023-03-25T06:00:07.993Z,99263.69
2023-03-25T06:03:13.912Z,99266.91
2023-03-25T06:06:19.302Z,99262.81
2023-03-25T06:09:21.718Z,99254.34
2023-03-25T06:12:27.622Z,99269.38
2023-03-25T06:15:33.517Z,99276.47
2023-03-25T06:18:39.136Z,99279.47
2023-03-25T06:21:41.382Z,99273.00
2023-03-25T06:24:43.982Z,99272.28
2023-03-25T06:27:48.623Z,99275.53
2023-03-25T06:30:51.229Z,99283.81
2023-03-25T06:33:57.156Z,99279.69
2023-03-25T06:37:00.490Z,99283.75
2023-03-25T06:40:02.980Z,99281.50
2023-03-25T06:43:06.421Z,99281.69
2023-03-25T06:46:11.743Z,99281.16
2023-03-25T06:49:33.082Z,99271.31
2023-03-25T06:52:36.212Z,99282.66
2023-03-25T06:55:39.198Z,99277.81
2023-03-25T06:58:42.125Z,99279.75
2023-03-25T07:01:44.669Z,99277.03
2023-03-25T07:04:47.085Z,99284.41
2023-03-25T07:07:49.459Z,99288.97
2023-03-25T07:10:51.966Z,99276.00
2023-03-25T07:13:54.646Z,99283.75
2023-03-25T07:16:57.105Z,99266.81
2023-03-25T07:19:59.503Z,99287.31
2023-03-25T07:23:01.978Z,99271.41
2023-03-25T07:26:04.559Z,99275.06
2023-03-25T07:29:07.371Z,99283.47
2023-03-25T07:32:09.935Z,99270.06
2023-03-25T07:35:12.381Z,99279.34
2023-03-25T07:38:15.036Z,99265.75
2023-03-25T07:41:17.377Z,99287.66
2023-03-25T07:44:34.319Z,99272.31
2023-03-25T07:47:36.646Z,99279.81
2023-03-25T07:50:39.007Z,99276.44
2023-03-25T07:53:44.682Z,99272.72
2023-03-25T07:56:47.107Z,99267.69
2023-03-25T07:59:49.472Z,99256.78
2023-03-25T08:02:51.893Z,99256.91
2023-03-25T08:05:54.507Z,99268.25
2023-03-25T08:08:56.997Z,99263.78
2023-03-25T08:11:59.380Z,99258.53
2023-03-25T08:15:01.862Z,99264.75
2023-03-25T08:18:05.442Z,99254.28
2023-03-25T08:21:09.945Z,99251.50
2023-03-25T08:24:13.841Z,99265.16
2023-03-25T08:27:16.693Z,99262.03
2023-03-25T08:30:19.194Z,99252.56
2023-03-25T08:33:23.193Z,99249.63
2023-03-25T08:36:25.716Z,99256.94
2023-03-25T08:39:30.027Z,99254.59
2023-03-25T08:42:32.427Z,99255.28
2023-03-25T08:45:36.604Z,99249.84
2023-03-25T08:48:38.991Z,99258.88
2023-03-25T08:51:41.293Z,99242.28
2023-03-25T08:54:43.572Z,99248.34
2023-03-25T08:57:46.025Z,99254.19
2023-03-25T09:00:49.578Z,99244.97
2023-03-25T09:03:52.486Z,99245.81
2023-03-25T09:07:11.125Z,99238.28
2023-03-25T09:10:14.771Z,99248.75
2023-03-25T09:13:17.195Z,99243.09
2023-03-25T09:16:19.637Z,99242.19
2023-03-25T09:19:22.255Z,99240.31
2023-03-25T09:22:24.692Z,99243.69
2023-03-25T09:25:27.045Z,99240.59
2023-03-25T09:28:29.840Z,99243.19
2023-03-25T09:31:33.597Z,99240.81
2023-03-25T09:34:36.441Z,99247.41
2023-03-25T09:37:39.096Z,99247.38
2023-03-25T09:40:45.219Z,99245.97
2023-03-25T09:43:51.755Z,99252.19
2023-03-25T09:46:55.241Z,99254.47
2023-03-25T09:50:01.103Z,99246.06
2023-03-25T09:53:27.313Z,99254.22
2023-03-25T09:56:32.548Z,99245.81
2023-03-25T09:59:44.451Z,99245.31
2023-03-25T10:02:55.443Z,99230.50
2023-03-25T10:06:03.758Z,99240.53
2023-03-25T10:09:06.149Z,99241.22
2023-03-25T10:12:30.382Z,99233.06
2023-03-25T10:15:41.631Z,99229.56
2023-03-25T10:19:07.116Z,99242.28
2023-03-25T10:22:19.333Z,99227.16
2023-03-25T10:25:25.737Z,99239.50
2023-03-25T10:28:33.541Z,99238.72
2023-03-25T10:31:40.456Z,99228.94
2023-03-25T10:34:47.764Z,99239.53
2023-03-25T10:37:52.915Z,99232.94
2023-03-25T10:41:11.285Z,99221.69
2023-03-25T10:44:14.235Z,99222.78
2023-03-25T10:47:20.346Z,99208.97
2023-03-25T10:50:23.359Z,99205.63
2023-03-25T10:53:27.291Z,99203.53
2023-03-25T10:56:36.203Z,99206.72
2023-03-25T10:59:45.438Z,99193.03
2023-03-25T11:02:48.462Z,99195.69
2023-03-25T11:05:52.017Z,99205.47
2023-03-25T11:08:59.447Z,99184.00
2023-03-25T11:12:05.599Z,99171.38
2023-03-25T11:15:08.662Z,99177.22
2023-03-25T11:18:40.685Z,99162.47
2023-03-25T11:21:48.101Z,99172.81
2023-03-25T11:24:57.362Z,99167.19
2023-03-25T11:28:03.473Z,99158.34
2023-03-25T11:31:18.047Z,99164.91
2023-03-25T11:34:21.753Z,99170.69
2023-03-25T11:37:28.500Z,99166.19
2023-03-25T11:40:33.007Z,99165.22
2023-03-25T11:43:37.960Z,99156.19
2023-03-25T11:46:43.666Z,99161.44
2023-03-25T11:49:49.662Z,99161.34
2023-03-25T11:52:58.822Z,99154.56
2023-03-25T11:56:04.878Z,99154.75
2023-03-25T11:59:29.232Z,99155.47
2023-03-25T12:02:38.251Z,99146.59
2023-03-25T12:05:41.977Z,99141.09
2023-03-25T12:08:52.010Z,99144.84
2023-03-25T12:12:35.136Z,99143.66
2023-03-25T12:15:41.989Z,99130.34
2023-03-25T12:18:49.681Z,99140.19
2023-03-25T12:21:55.184Z,99133.88
2023-03-25T12:25:12.849Z,99122.66
2023-03-25T12:28:33.081Z,99120.75
2023-03-25T12:31:47.497Z,99120.09
2023-03-25T12:34:55.153Z,99114.13
2023-03-25T12:38:10.608Z,99123.31
2023-03-25T12:41:23.414Z,99111.34
2023-03-25T12:44:34.652Z,99116.06
2023-03-25T12:47:44.681Z,99102.84
2023-03-25T12:51:05.527Z,99103.13
2023-03-25T12:54:32.372Z,99096.97
2023-03-25T12:58:05.671Z,99105.16
2023-03-25T13:01:17.758Z,99092.03
2023-03-25T13:04:44.845Z,99081.47
2023-03-25T13:07:55.175Z,99092.03
2023-03-25T13:11:07.461Z,99078.34
2023-03-25T13:14:16.748Z,99080.31
2023-03-25T13:17:44.014Z,99079.81
2023-03-25T13:21:06.882Z,99081.22
2023-03-25T13:24:22.123Z,99082.63
2023-03-25T13:27:24.764Z,99085.66
2023-03-25T13:30:41.862Z,99081.13
2023-03-25T13:34:04.387Z,99084.16
2023-03-25T13:37:24.050Z,99080.31
2023-03-25T13:40:33.857Z,99094.22
2023-03-25T13:43:43.718Z,99090.16
2023-03-25T13:46:53.405Z,99086.03
2023-03-25T13:50:07.290Z,99087.13
2023-03-25T13:53:29.912Z,99081.34
2023-03-25T13:56:52.134Z,99084.09
2023-03-25T14:00:14.595Z,99088.25
2023-03-25T14:03:23.138Z,99080.34
2023-03-25T14:07:06.262Z,99089.16
2023-03-25T14:10:39.435Z,99087.03
2023-03-25T14:13:46.179Z,99062.78
2023-03-25T14:16:52.291Z,99076.28
2023-03-25T14:19:58.462Z,99079.50
2023-03-25T14:23:05.572Z,99067.81
2023-03-25T14:26:10.261Z,99083.25
2023-03-25T14:29:47.349Z,99083.41
2023-03-25T14:32:52.200Z,99076.81
2023-03-25T14:35:54.888Z,99077.44
2023-03-25T14:38:58.459Z,99076.00
2023-03-25T14:42:03.214Z,99078.09
2023-03-25T14:45:30.205Z,99083.28
2023-03-25T14:48:37.956Z,99080.22
2023-03-25T14:51:41.806Z,99077.34
2023-03-25T14:54:44.345Z,99065.72
2023-03-25T14:57:48.075Z,99077.66
2023-03-25T15:01:04.549Z,99081.69
2023-03-25T15:04:31.080Z,99087.94
2023-03-25T15:07:51.988Z,99095.16
2023-03-25T15:11:09.424Z,99100.06
2023-03-25T15:14:17.312Z,99086.72
2023-03-25T15:17:49.389Z,99101.78
2023-03-25T15:20:51.950Z,99105.25
2023-03-25T15:24:27.490Z,99104.38
2023-03-25T15:27:35.430Z,99102.75
2023-03-25T15:30:49.537Z,99103.16
2023-03-25T15:34:10.598Z,99107.63
2023-03-25T15:37:19.399Z,99095.78
2023-03-25T15:41:13.113Z,99097.69
2023-03-25T15:44:42.891Z,99098.94
2023-03-25T15:48:12.545Z,99108.78
2023-03-25T15:51:33.414Z,99107.75
2023-03-25T15:54:47.574Z,99119.03
2023-03-25T15:58:01.493Z,99110.22
2023-03-25T16:01:31.470Z,99115.66
2023-03-25T16:04:42.452Z,99110.88
2023-03-25T16:07:46.276Z,99108.19
2023-03-25T16:10:49.330Z,99106.28
2023-03-25T16:14:22.810Z,99104.31
2023-03-25T16:17:31.898Z,99098.53
2023-03-25T16:20:36.553Z,99102.53
2023-03-25T16:23:39.518Z,99103.75
2023-03-25T16:26:48.157Z,99099.94
2023-03-25T16:29:53.854Z,99105.41
2023-03-25T16:33:32.497Z,99082.25
2023-03-25T16:36:34.979Z,99106.47
2023-03-25T16:39:38.049Z,99093.81
2023-03-25T16:42:40.414Z,99106.63
2023-03-25T16:45:44.147Z,99111.53
2023-03-25T16:48:54.329Z,99119.84
2023-03-25T16:51:58.469Z,99111.66
2023-03-25T16:55:04.942Z,99122.34
2023-03-25T16:58:16.070Z,99114.59
2023-03-25T17:01:19.000Z,99118.72
2023-03-25T17:04:26.195Z,99127.63
2023-03-25T17:07:29.766Z,99128.84
2023-03-25T17:10:34.770Z,99127.53
2023-03-25T17:13:48.727Z,99126.50
2023-03-25T17:16:53.118Z,99137.31
2023-03-25T17:19:55.963Z,99144.06
2023-03-25T17:23:08.327Z,99139.44
2023-03-25T17:26:13.061Z,99140.41
2023-03-25T17:29:16.032Z,99156.13
2023-03-25T17:32:19.303Z,99150.75
2023-03-25T17:35:28.161Z,99151.94
2023-03-25T17:38:40.329Z,99157.19
2023-03-25T17:41:42.754Z,99156.66
2023-03-25T17:44:46.020Z,99158.25
2023-03-25T17:47:49.592Z,99158.31
2023-03-25T17:50:53.393Z,99171.03
2023-03-25T17:53:56.352Z,99165.19
2023-03-25T17:56:58.849Z,99162.34
2023-03-25T18:00:01.450Z,99145.69
2023-03-25T18:03:11.227Z,99172.09
2023-03-25T18:06:14.204Z,99177.09
2023-03-25T18:09:18.647Z,99182.47
2023-03-25T18:12:21.211Z,99180.19
2023-03-25T18:15:23.503Z,99167.69
2023-03-25T18:18:27.205Z,99176.22
2023-03-25T18:21:29.879Z,99171.03
2023-03-25T18:24:33.925Z,99171.25
2023-03-25T18:27:43.706Z,99174.47
2023-03-25T18:30:46.699Z,99175.22
2023-03-25T18:33:54.269Z,99170.81
2023-03-25T18:36:56.698Z,99174.13
2023-03-25T18:39:59.317Z,99172.19
2023-03-25T18:43:01.685Z,99161.88
2023-03-25T18:46:04.507Z,99164.22
2023-03-25T18:49:14.130Z,99167.19
2023-03-25T18:52:16.547Z,99158.34
2023-03-25T18:55:19.758Z,99164.41
2023-03-25T18:58:24.873Z,99162.91
2023-03-25T19:01:27.811Z,99162.75
2023-03-25T19:04:31.976Z,99154.31
2023-03-25T19:07:34.269Z,99156.16
2023-03-25T19:10:37.033Z,99151.06
2023-03-25T19:13:39.504Z,99139.81
2023-03-25T19:16:46.101Z,99139.81
2023-03-25T19:19:53.426Z,99140.09
2023-03-25T19:22:56.632Z,99143.44
2023-03-25T19:26:01.184Z,99137.50
2023-03-25T19:29:03.585Z,99133.13
2023-03-25T19:32:06.609Z,99137.16
2023-03-25T19:35:11.153Z,99135.91
2023-03-25T19:38:13.347Z,99125.03
2023-03-25T19:41:16.773Z,99129.50
2023-03-25T19:44:21.868Z,99127.19
2023-03-25T19:47:24.748Z,99121.84
2023-03-25T19:50:30.592Z,99121.47
2023-03-25T19:53:34.201Z,99114.72
2023-03-25T19:56:37.089Z,99118.53
2023-03-25T19:59:39.610Z,99114.94
2023-03-25T20:02:42.044Z,99115.53
2023-03-25T20:05:44.659Z,99121.22
2023-03-25T20:08:47.506Z,99120.94
2023-03-25T20:11:49.848Z,99126.47
2023-03-25T20:14:53.382Z,99124.13
2023-03-25T20:17:56.572Z,99123.53
2023-03-25T20:20:59.010Z,99125.75
2023-03-25T20:24:02.151Z,99123.09
2023-03-25T20:27:04.528Z,99128.00
2023-03-25T20:30:08.510Z,99112.84
2023-03-25T20:33:11.252Z,99118.41
2023-03-25T20:36:13.681Z,99120.31
2023-03-25T20:39:16.196Z,99138.25
2023-03-25T20:42:18.852Z,99131.94
2023-03-25T20:45:21.323Z,99130.91
2023-03-25T20:48:28.746Z,99136.91
2023-03-25T20:51:31.023Z,99137.50
2023-03-25T20:54:34.208Z,99142.41
2023-03-25T20:57:37.238Z,99131.72
2023-03-25T21:00:39.621Z,99147.47
2023-03-25T21:03:42.981Z,99153.25
2023-03-25T21:06:45.409Z,99158.47
2023-03-25T21:09:47.887Z,99155.16
2023-03-25T21:12:50.329Z,99149.28
2023-03-25T21:15:57.420Z,99144.88
2023-03-25T21:19:03.929Z,99133.81
2023-03-25T21:22:06.713Z,99149.09
2023-03-25T21:25:09.764Z,99138.88
2023-03-25T21:28:12.434Z,99130.19
2023-03-25T21:31:22.018Z,99140.25
2023-03-25T21:34:24.992Z,99141.19
2023-03-25T21:37:28.092Z,99137.13
2023-03-25T21:40:39.687Z,99135.53
2023-03-25T21:43:42.727Z,99141.06
2023-03-25T21:46:45.656Z,99136.19
2023-03-25T21:49:50.715Z,99129.56
2023-03-25T21:52:53.447Z,99126.69
2023-03-25T21:56:00.163Z,99125.69
2023-03-25T21:59:04.738Z,99130.56
2023-03-25T22:02:08.697Z,99119.47
2023-03-25T22:05:12.846Z,99136.69
2023-03-25T22:08:16.108Z,99130.97
2023-03-25T22:11:21.216Z,99138.03
2023-03-25T22:14:23.981Z,99130.56
2023-03-25T22:17:26.712Z,99133.03
2023-03-25T22:20:29.107Z,99134.47
2023-03-25T22:23:31.782Z,99136.31
2023-03-25T22:26:35.351Z,99129.84
2023-03-25T22:29:37.802Z,99127.25
2023-03-25T22:32:40.610Z,99117.34
2023-03-25T22:35:43.325Z,99123.66
2023-03-25T22:38:48.078Z,99116.97
2023-03-25T22:41:50.633Z,99107.63
2023-03-25T22:44:53.226Z,99114.16
2023-03-25T22:47:55.787Z,99117.28
2023-03-25T22:50:58.419Z,99085.13
2023-03-25T22:54:00.725Z,99114.16
2023-03-25T22:57:03.005Z,99122.78
2023-03-25T23:00:13.104Z,99117.38
2023-03-25T23:03:15.660Z,99127.47
2023-03-25T23:06:18.099Z,99115.50
2023-03-25T23:09:40.442Z,99118.41
2023-03-25T23:12:42.995Z,99106.66
2023-03-25T23:15:46.505Z,99107.19
2023-03-25T23:18:49.361Z,99123.59
2023-03-25T23:21:51.891Z,99108.56
2023-03-25T23:24:54.367Z,99118.56
2023-03-25T23:27:58.167Z,99106.53
2023-03-25T23:31:02.103Z,99106.75
2023-03-25T23:34:07.036Z,99108.09
2023-03-25T23:37:09.389Z,99098.59
2023-03-25T23:40:12.655Z,99090.81
2023-03-25T23:43:15.862Z,99087.84
2023-03-25T23:46:20.223Z,99099.69
2023-03-25T23:49:23.041Z,99094.81
2023-03-25T23:52:25.608Z,99096.31
2023-03-25T23:55:27.932Z,99087.88
2023-03-25T23:58:32.518Z,99094.97
